Five Points, New Mexico
Current Conditions -  °F | °C
As of 8:48 AM on Saturday 22 Nov 2014 (Local Time) from KAEG Reporting Station
Clear Clear  
Wind Chill: 35°   Ceiling: Unl
Heat Index: 39°   Visibility: 10mi
Dew Point: 19°   Wind: 6mph
Humidity: 45%   Direction: 250°WSW
Pressure: 30.12"   Gusts: NA
Location:  35.1341°N, 106.888°W
Report Text: KAEG 221548Z 25005KT 10SM SKC 04/M07 A3012
Loading
Personal Weather Stations






























Interactive Weather Map New forecast layout! Learn more

10-Day Weather Forecast

Advertisements
Track Severe Weather on mobile